createdAt,value
2018-08-08T00:01:50.262Z,93.70
2018-08-08T00:04:17.814Z,94.30
2018-08-08T00:06:45.435Z,94.00
2018-08-08T00:09:13.000Z,93.40
2018-08-08T00:11:40.785Z,94.10
2018-08-08T00:14:08.529Z,94.40
2018-08-08T00:16:36.116Z,94.10
2018-08-08T00:19:03.833Z,94.20
2018-08-08T00:21:31.534Z,95.00
2018-08-08T00:23:59.248Z,94.90
2018-08-08T00:26:26.925Z,95.40
2018-08-08T00:28:54.597Z,95.10
2018-08-08T00:31:22.136Z,95.20
2018-08-08T00:33:49.735Z,95.50
2018-08-08T00:36:17.564Z,96.70
2018-08-08T00:38:45.269Z,96.30
2018-08-08T00:41:13.143Z,95.90
2018-08-08T00:43:40.799Z,96.20
2018-08-08T00:46:08.380Z,96.50
2018-08-08T00:48:36.035Z,96.80
2018-08-08T00:51:03.822Z,97.00
2018-08-08T00:53:31.413Z,97.10
2018-08-08T00:55:58.983Z,97.00
2018-08-08T00:58:26.635Z,96.90
2018-08-08T01:00:54.774Z,96.40
2018-08-08T01:03:22.497Z,96.50
2018-08-08T01:05:50.341Z,96.90
2018-08-08T01:08:17.983Z,96.70
2018-08-08T01:10:45.503Z,97.20
2018-08-08T01:13:13.128Z,97.30
2018-08-08T01:15:40.847Z,97.90
2018-08-08T01:18:08.521Z,98.00
2018-08-08T01:20:36.068Z,98.20
2018-08-08T01:23:03.617Z,98.00
2018-08-08T01:25:31.162Z,98.40
2018-08-08T01:27:58.725Z,98.40
2018-08-08T01:30:26.303Z,98.20
2018-08-08T01:32:53.853Z,98.30
2018-08-08T01:35:21.431Z,98.60
2018-08-08T01:37:49.109Z,98.60
2018-08-08T01:40:17.868Z,98.80
2018-08-08T01:42:45.848Z,98.30
2018-08-08T01:45:14.742Z,98.40
2018-08-08T01:47:42.541Z,98.50
2018-08-08T01:50:11.424Z,98.90
2018-08-08T01:52:39.615Z,99.00
2018-08-08T01:55:08.935Z,99.00
2018-08-08T01:57:36.531Z,98.90
2018-08-08T02:00:06.436Z,99.10
2018-08-08T02:02:34.220Z,99.50
2018-08-08T02:05:01.925Z,99.90
2018-08-08T02:07:29.543Z,99.60
2018-08-08T02:09:57.171Z,99.90
2018-08-08T02:12:24.949Z,99.90
2018-08-08T02:14:52.665Z,99.90
2018-08-08T02:17:20.309Z,99.90
2018-08-08T02:19:47.957Z,99.90
2018-08-08T02:22:15.476Z,99.90
2018-08-08T02:24:43.196Z,99.90
2018-08-08T02:27:11.076Z,99.90
2018-08-08T02:29:38.669Z,99.90
2018-08-08T02:32:06.397Z,99.90
2018-08-08T02:34:34.049Z,99.90
2018-08-08T02:37:01.985Z,99.90
2018-08-08T02:39:29.551Z,99.90
2018-08-08T02:41:57.438Z,99.90
2018-08-08T02:44:25.211Z,99.90
2018-08-08T02:46:52.853Z,99.90
2018-08-08T02:49:20.408Z,99.90
2018-08-08T02:51:48.050Z,99.90
2018-08-08T02:54:15.674Z,99.90
2018-08-08T02:56:43.700Z,99.90
2018-08-08T02:59:12.009Z,99.90
2018-08-08T03:01:40.133Z,99.90
2018-08-08T03:04:08.188Z,99.90
2018-08-08T03:06:36.337Z,99.90
2018-08-08T03:09:07.884Z,99.90
2018-08-08T03:11:36.148Z,99.40
2018-08-08T03:14:04.613Z,99.40
2018-08-08T03:16:32.701Z,98.90
2018-08-08T03:19:00.657Z,98.00
2018-08-08T03:21:28.684Z,98.00
2018-08-08T03:23:56.924Z,98.20
2018-08-08T03:26:25.362Z,98.10
2018-08-08T03:28:53.513Z,98.30
2018-08-08T03:31:21.576Z,98.20
2018-08-08T03:33:49.792Z,98.40
2018-08-08T03:36:18.081Z,98.40
2018-08-08T03:38:46.072Z,98.60
2018-08-08T03:41:14.226Z,98.00
2018-08-08T03:43:42.259Z,98.80
2018-08-08T03:46:10.470Z,98.50
2018-08-08T03:48:39.021Z,98.60
2018-08-08T03:51:07.128Z,99.20
2018-08-08T03:53:35.411Z,99.50
2018-08-08T03:56:03.913Z,99.20
2018-08-08T03:58:31.848Z,98.90
2018-08-08T04:00:59.704Z,99.70
2018-08-08T04:03:27.729Z,99.40
2018-08-08T04:05:55.696Z,99.90
2018-08-08T04:08:23.673Z,99.90
2018-08-08T04:10:51.769Z,99.90
2018-08-08T04:13:19.664Z,99.90
2018-08-08T04:15:47.573Z,99.80
2018-08-08T04:18:15.512Z,99.90
2018-08-08T04:20:43.478Z,99.90
2018-08-08T04:23:11.327Z,99.90
2018-08-08T04:25:39.284Z,99.90
2018-08-08T04:28:07.304Z,99.90
2018-08-08T04:30:35.280Z,99.90
2018-08-08T04:33:03.195Z,99.90
2018-08-08T04:35:31.123Z,99.90
2018-08-08T04:37:59.029Z,99.90
2018-08-08T04:40:27.303Z,99.90
2018-08-08T04:42:55.391Z,99.90
2018-08-08T04:45:23.344Z,99.90
2018-08-08T04:47:51.352Z,99.90
2018-08-08T04:50:19.364Z,99.90
2018-08-08T04:52:47.132Z,99.90
2018-08-08T04:55:15.937Z,99.90
2018-08-08T04:57:44.064Z,99.90
2018-08-08T05:00:14.208Z,99.90
2018-08-08T05:02:42.269Z,99.90
2018-08-08T05:05:10.268Z,99.90
2018-08-08T05:07:38.426Z,99.90
2018-08-08T05:10:08.837Z,99.90
2018-08-08T05:12:37.751Z,99.90
2018-08-08T05:15:06.979Z,99.90
2018-08-08T05:17:35.298Z,99.90
2018-08-08T05:20:03.907Z,99.90
2018-08-08T05:22:31.987Z,99.90
2018-08-08T05:25:00.217Z,99.90
2018-08-08T05:27:28.784Z,99.90
2018-08-08T05:29:57.137Z,99.90
2018-08-08T05:32:25.329Z,99.90
2018-08-08T05:34:53.362Z,99.90
2018-08-08T05:37:21.610Z,99.90
2018-08-08T05:39:49.827Z,99.90
2018-08-08T05:42:17.783Z,99.90
2018-08-08T05:44:46.742Z,99.90
2018-08-08T05:47:14.742Z,99.90
2018-08-08T05:49:42.999Z,99.90
2018-08-08T05:52:10.879Z,99.90
2018-08-08T05:54:39.038Z,99.90
2018-08-08T05:57:07.533Z,99.90
2018-08-08T05:59:35.763Z,99.90
2018-08-08T06:02:03.771Z,99.90
2018-08-08T06:04:31.746Z,99.90
2018-08-08T06:06:59.710Z,99.90
2018-08-08T06:09:27.663Z,99.90
2018-08-08T06:11:55.604Z,99.90
2018-08-08T06:14:23.631Z,99.90
2018-08-08T06:16:51.885Z,99.90
2018-08-08T06:19:19.810Z,99.90
2018-08-08T06:21:47.710Z,99.90
2018-08-08T06:24:15.659Z,99.90
2018-08-08T06:26:43.394Z,99.90
2018-08-08T06:29:11.612Z,99.90
2018-08-08T06:31:39.491Z,99.90
2018-08-08T06:34:07.524Z,99.90
2018-08-08T06:36:35.580Z,99.90
2018-08-08T06:39:06.085Z,99.90
2018-08-08T06:41:34.168Z,99.90
2018-08-08T06:44:02.205Z,99.90
2018-08-08T06:46:30.098Z,99.90
2018-08-08T06:48:58.149Z,99.90
2018-08-08T06:51:26.368Z,99.90
2018-08-08T06:53:54.320Z,99.90
2018-08-08T06:56:22.230Z,99.90
2018-08-08T06:58:50.214Z,99.90
2018-08-08T07:01:18.245Z,99.90
2018-08-08T07:03:46.235Z,99.90
2018-08-08T07:06:14.303Z,99.90
2018-08-08T07:08:42.140Z,99.90
2018-08-08T07:11:10.127Z,99.90
2018-08-08T07:13:38.178Z,99.90
2018-08-08T07:16:06.238Z,99.90
2018-08-08T07:18:34.267Z,99.90
2018-08-08T07:21:02.484Z,99.90
2018-08-08T07:23:30.497Z,99.90
2018-08-08T07:25:58.608Z,99.90
2018-08-08T07:28:26.556Z,99.90
2018-08-08T07:30:54.485Z,99.90
2018-08-08T07:33:22.387Z,99.90
2018-08-08T07:35:50.352Z,99.90
2018-08-08T07:38:18.246Z,99.90
2018-08-08T07:40:46.237Z,99.90
2018-08-08T07:43:14.231Z,99.90
2018-08-08T07:45:42.175Z,99.90
2018-08-08T07:48:10.181Z,99.90
2018-08-08T07:50:38.029Z,99.90
2018-08-08T07:53:06.031Z,99.90
2018-08-08T07:55:33.747Z,99.90
2018-08-08T07:58:01.525Z,99.90
2018-08-08T08:00:30.377Z,99.90
2018-08-08T08:02:58.802Z,99.90
2018-08-08T08:05:26.551Z,99.90
2018-08-08T08:07:54.787Z,99.90
2018-08-08T08:10:22.528Z,99.90
2018-08-08T08:12:50.263Z,99.90
2018-08-08T08:15:18.031Z,99.90
2018-08-08T08:17:45.728Z,99.90
2018-08-08T08:20:17.409Z,99.90
2018-08-08T08:22:46.183Z,99.90
2018-08-08T08:25:14.009Z,99.90
2018-08-08T08:27:41.745Z,99.90
2018-08-08T08:30:11.804Z,99.90
2018-08-08T08:32:39.494Z,99.90
2018-08-08T08:35:07.470Z,99.90
2018-08-08T08:37:35.211Z,99.90
2018-08-08T08:40:03.341Z,99.90
2018-08-08T08:42:31.251Z,99.90
2018-08-08T08:44:59.253Z,99.90
2018-08-08T08:47:27.220Z,99.90
2018-08-08T08:49:55.515Z,99.90
2018-08-08T08:52:23.505Z,99.90
2018-08-08T08:54:51.452Z,99.90
2018-08-08T08:57:19.500Z,99.90
2018-08-08T08:59:47.392Z,99.90
2018-08-08T09:02:15.929Z,99.90
2018-08-08T09:04:43.911Z,99.90
2018-08-08T09:07:11.911Z,99.90
2018-08-08T09:09:39.858Z,99.90
2018-08-08T09:12:08.313Z,99.90
2018-08-08T09:14:36.116Z,99.90
2018-08-08T09:17:04.186Z,99.90
2018-08-08T09:19:32.064Z,99.90
2018-08-08T09:22:00.069Z,99.90
2018-08-08T09:24:28.022Z,99.90
2018-08-08T09:26:56.036Z,99.90
2018-08-08T09:29:24.071Z,99.90
2018-08-08T09:31:51.948Z,99.90
2018-08-08T09:34:19.837Z,99.90
2018-08-08T09:36:47.815Z,99.70
2018-08-08T09:39:15.820Z,99.90
2018-08-08T09:41:43.689Z,99.90
2018-08-08T09:44:11.712Z,99.70
2018-08-08T09:46:39.630Z,99.10
2018-08-08T09:49:07.840Z,99.90
2018-08-08T09:51:35.679Z,99.80
2018-08-08T09:54:03.637Z,99.20
2018-08-08T09:56:31.783Z,99.50
2018-08-08T09:58:59.780Z,99.80
2018-08-08T10:01:33.295Z,98.60
2018-08-08T10:04:06.776Z,99.10
2018-08-08T10:06:34.634Z,98.90
2018-08-08T10:09:02.585Z,98.60
2018-08-08T10:11:30.785Z,97.90
2018-08-08T10:13:58.673Z,99.00
2018-08-08T10:16:26.743Z,98.30
2018-08-08T10:18:54.596Z,98.10
2018-08-08T10:21:22.488Z,98.30
2018-08-08T10:23:50.688Z,97.80
2018-08-08T10:26:18.553Z,97.40
2018-08-08T10:28:46.501Z,98.20
2018-08-08T10:31:14.500Z,98.50
2018-08-08T10:33:42.453Z,98.70
2018-08-08T10:36:10.425Z,98.80
2018-08-08T10:38:38.308Z,98.10
2018-08-08T10:41:06.404Z,99.00
2018-08-08T10:43:34.232Z,98.80
2018-08-08T10:46:02.261Z,99.10
2018-08-08T10:48:30.216Z,99.70
2018-08-08T10:50:58.325Z,99.60
2018-08-08T10:53:25.825Z,99.20
2018-08-08T10:55:53.361Z,99.20
2018-08-08T10:58:20.837Z,99.30
2018-08-08T11:00:48.373Z,99.70
2018-08-08T11:03:15.992Z,99.90
2018-08-08T11:05:43.511Z,99.70
2018-08-08T11:08:10.975Z,99.60
2018-08-08T11:10:38.480Z,99.80
2018-08-08T11:13:06.025Z,99.00
2018-08-08T11:15:33.520Z,99.50
2018-08-08T11:18:00.997Z,99.00
2018-08-08T11:20:28.562Z,99.10
2018-08-08T11:22:56.064Z,99.20
2018-08-08T11:25:23.576Z,99.30
2018-08-08T11:27:51.044Z,99.70
2018-08-08T11:30:18.590Z,99.10
2018-08-08T11:32:46.040Z,99.30
2018-08-08T11:35:13.552Z,99.00
2018-08-08T11:37:41.712Z,99.90
2018-08-08T11:40:09.285Z,99.40
2018-08-08T11:42:36.906Z,98.30
2018-08-08T11:45:05.269Z,98.40
2018-08-08T11:47:33.264Z,97.10
2018-08-08T11:50:01.189Z,97.00
2018-08-08T11:52:28.722Z,97.60
2018-08-08T11:54:56.371Z,97.80
2018-08-08T11:57:24.030Z,98.00
2018-08-08T11:59:52.035Z,98.00
2018-08-08T12:02:19.567Z,98.20
2018-08-08T12:04:47.058Z,98.20
2018-08-08T12:07:14.574Z,98.00
2018-08-08T12:09:42.071Z,98.70
2018-08-08T12:12:09.579Z,98.40
2018-08-08T12:14:37.725Z,98.40
2018-08-08T12:17:05.274Z,98.50
2018-08-08T12:19:32.831Z,98.20
2018-08-08T12:22:00.792Z,99.10
2018-08-08T12:24:29.083Z,99.10
2018-08-08T12:26:56.944Z,99.30
2018-08-08T12:29:24.472Z,99.70
2018-08-08T12:31:52.419Z,99.90
2018-08-08T12:34:20.126Z,99.90
2018-08-08T12:36:47.717Z,99.90
2018-08-08T12:39:15.564Z,99.90
2018-08-08T12:41:43.209Z,99.10
2018-08-08T12:44:10.864Z,99.10
2018-08-08T12:46:38.834Z,99.70
2018-08-08T12:49:06.469Z,99.90
2018-08-08T12:51:34.148Z,99.00
2018-08-08T12:54:01.749Z,98.30
2018-08-08T12:56:29.337Z,98.80
2018-08-08T12:58:57.024Z,98.70
2018-08-08T13:01:24.769Z,98.00
2018-08-08T13:03:52.562Z,97.90
2018-08-08T13:06:20.205Z,98.40
2018-08-08T13:08:47.732Z,98.20
2018-08-08T13:11:15.332Z,97.90
2018-08-08T13:13:42.967Z,97.80
2018-08-08T13:16:10.587Z,97.40
2018-08-08T13:18:38.161Z,97.60
2018-08-08T13:21:05.835Z,97.40
2018-08-08T13:23:33.511Z,97.60
2018-08-08T13:26:01.125Z,97.80
2018-08-08T13:28:28.665Z,97.70
2018-08-08T13:30:56.359Z,97.80
2018-08-08T13:33:23.867Z,97.80
2018-08-08T13:35:51.433Z,97.80
2018-08-08T13:38:19.439Z,98.10
2018-08-08T13:40:47.041Z,98.10
2018-08-08T13:43:14.652Z,97.60
2018-08-08T13:45:42.390Z,97.20
2018-08-08T13:48:09.961Z,97.60
2018-08-08T13:50:37.556Z,97.60
2018-08-08T13:53:05.090Z,97.90
2018-08-08T13:55:32.638Z,98.30
2018-08-08T13:58:00.136Z,97.80
2018-08-08T14:00:27.667Z,97.90
2018-08-08T14:02:55.752Z,97.80
2018-08-08T14:05:23.347Z,98.20
2018-08-08T14:07:50.896Z,98.10
2018-08-08T14:10:18.465Z,98.40
2018-08-08T14:12:46.108Z,98.30
2018-08-08T14:15:13.687Z,98.00
2018-08-08T14:17:41.278Z,97.40
2018-08-08T14:20:10.022Z,97.30
2018-08-08T14:22:37.581Z,97.40
2018-08-08T14:25:05.555Z,97.70
2018-08-08T14:27:33.799Z,97.90
2018-08-08T14:30:01.648Z,97.70
2018-08-08T14:32:29.159Z,98.20
2018-08-08T14:34:56.653Z,99.90
2018-08-08T14:37:24.118Z,99.90
2018-08-08T14:39:51.790Z,99.90
2018-08-08T14:42:19.433Z,99.90
2018-08-08T14:44:47.183Z,99.90
2018-08-08T14:47:36.024Z,99.00
2018-08-08T14:50:29.222Z,98.30
2018-08-08T14:53:03.878Z,98.20
2018-08-08T14:55:45.419Z,97.50
2018-08-08T14:58:19.194Z,97.50
2018-08-08T15:00:47.405Z,96.60
2018-08-08T15:06:07.094Z,97.40
2018-08-08T15:08:35.007Z,97.00
2018-08-08T15:11:02.934Z,96.30
2018-08-08T15:13:31.056Z,96.60
2018-08-08T15:15:59.027Z,97.10
2018-08-08T15:18:27.181Z,97.00
2018-08-08T15:20:55.324Z,97.30
2018-08-08T15:23:23.656Z,97.10
2018-08-08T15:25:51.576Z,97.00
2018-08-08T15:28:19.444Z,97.00
2018-08-08T15:30:47.418Z,97.10
2018-08-08T15:33:15.422Z,97.60
2018-08-08T15:35:47.350Z,97.70
2018-08-08T15:38:15.394Z,98.10
2018-08-08T15:40:43.023Z,98.00
2018-08-08T15:43:10.633Z,98.30
2018-08-08T15:45:38.353Z,98.30
2018-08-08T15:48:05.968Z,98.30
2018-08-08T15:50:42.463Z,98.30
2018-08-08T15:53:10.262Z,98.30
2018-08-08T15:55:38.971Z,98.30
2018-08-08T15:58:06.588Z,98.20
2018-08-08T16:00:34.245Z,98.50
2018-08-08T16:03:02.165Z,98.40
2018-08-08T16:05:29.658Z,98.50
2018-08-08T16:07:59.713Z,98.20
2018-08-08T16:10:27.509Z,98.80
2018-08-08T16:12:55.018Z,98.90
2018-08-08T16:15:22.606Z,98.90
2018-08-08T16:17:50.208Z,98.30
2018-08-08T16:20:17.776Z,98.70
2018-08-08T16:22:45.686Z,99.10
2018-08-08T16:25:13.213Z,98.90
2018-08-08T16:27:40.981Z,98.70
2018-08-08T16:30:08.951Z,98.80
2018-08-08T16:32:36.775Z,99.10
2018-08-08T16:35:05.486Z,99.30
2018-08-08T16:37:33.435Z,99.10
2018-08-08T16:40:01.085Z,99.20
2018-08-08T16:42:29.179Z,99.70
2018-08-08T16:44:56.947Z,99.90
2018-08-08T16:47:25.136Z,99.40
2018-08-08T16:49:53.037Z,99.60
2018-08-08T16:52:20.685Z,99.70
2018-08-08T16:54:48.348Z,99.60
2018-08-08T16:57:16.335Z,99.60
2018-08-08T16:59:44.430Z,99.50
2018-08-08T17:02:12.969Z,99.60
2018-08-08T17:04:40.913Z,99.60
2018-08-08T17:07:08.996Z,99.30
2018-08-08T17:09:36.862Z,99.60
2018-08-08T17:12:05.020Z,99.50
2018-08-08T17:14:33.253Z,99.50
2018-08-08T17:17:01.323Z,99.30
2018-08-08T17:19:29.289Z,99.30
2018-08-08T17:21:57.333Z,99.90
2018-08-08T17:24:25.493Z,99.60
2018-08-08T17:26:53.291Z,99.30
2018-08-08T17:29:21.042Z,99.50
2018-08-08T17:31:49.000Z,99.40
2018-08-08T17:34:17.067Z,99.50
2018-08-08T17:36:45.030Z,99.40
2018-08-08T17:39:13.006Z,99.40
2018-08-08T17:41:40.580Z,99.90
2018-08-08T17:44:08.798Z,99.40
2018-08-08T17:46:37.028Z,99.40
2018-08-08T17:49:05.042Z,99.10
2018-08-08T17:51:33.268Z,99.30
2018-08-08T17:54:00.862Z,99.20
2018-08-08T17:56:28.379Z,99.90
2018-08-08T17:58:56.113Z,99.60
2018-08-08T18:01:23.835Z,99.60
2018-08-08T18:03:51.356Z,99.90
2018-08-08T18:06:19.502Z,99.70
2018-08-08T18:08:47.076Z,99.60
2018-08-08T18:11:21.523Z,99.90
2018-08-08T18:13:49.057Z,99.90
2018-08-08T18:16:16.847Z,99.90
2018-08-08T18:18:44.381Z,99.90
2018-08-08T18:21:12.175Z,99.90
2018-08-08T18:23:39.725Z,99.90
2018-08-08T18:26:07.258Z,99.90
2018-08-08T18:28:34.755Z,99.90
2018-08-08T18:31:02.782Z,99.90
2018-08-08T18:33:30.225Z,99.70
2018-08-08T18:35:57.798Z,99.90
2018-08-08T18:38:25.409Z,99.90
2018-08-08T18:40:52.930Z,99.90
2018-08-08T18:43:20.509Z,99.70
2018-08-08T18:45:48.254Z,99.90
2018-08-08T18:48:15.952Z,99.90
2018-08-08T18:50:43.406Z,99.90
2018-08-08T18:53:11.372Z,99.90
2018-08-08T18:55:38.886Z,99.90
2018-08-08T18:58:06.528Z,99.90
2018-08-08T19:00:34.269Z,99.90
2018-08-08T19:03:01.724Z,99.90
2018-08-08T19:05:29.287Z,99.90
2018-08-08T19:07:56.944Z,99.90
2018-08-08T19:10:24.553Z,99.90
2018-08-08T19:12:52.112Z,99.90
2018-08-08T19:15:19.957Z,99.90
2018-08-08T19:17:47.501Z,99.90
2018-08-08T19:20:15.004Z,99.90
2018-08-08T19:22:42.636Z,99.90
2018-08-08T19:25:10.366Z,99.90
2018-08-08T19:27:38.153Z,99.90
2018-08-08T19:30:06.312Z,99.90
2018-08-08T19:32:33.817Z,99.90
2018-08-08T19:35:01.481Z,99.90
2018-08-08T19:37:29.490Z,99.90
2018-08-08T19:39:57.122Z,99.90
2018-08-08T19:42:24.883Z,99.90
2018-08-08T19:44:52.551Z,99.90
2018-08-08T19:47:20.186Z,99.90
2018-08-08T19:49:47.805Z,99.90
2018-08-08T19:52:15.473Z,99.90
2018-08-08T19:54:43.262Z,99.90
2018-08-08T19:57:10.819Z,99.90
2018-08-08T19:59:38.400Z,99.90
2018-08-08T20:02:06.123Z,99.90
2018-08-08T20:04:34.140Z,99.90
2018-08-08T20:07:02.044Z,99.90
2018-08-08T20:09:30.069Z,99.90
2018-08-08T20:11:58.168Z,99.90
2018-08-08T20:14:26.135Z,99.90
2018-08-08T20:16:54.531Z,99.90
2018-08-08T20:19:22.393Z,99.90
2018-08-08T20:21:50.240Z,99.90
2018-08-08T20:24:18.156Z,99.90
2018-08-08T20:26:45.866Z,99.90
2018-08-08T20:29:13.611Z,99.90
2018-08-08T20:31:41.180Z,99.90
2018-08-08T20:34:08.830Z,99.90
2018-08-08T20:36:36.544Z,99.90
2018-08-08T20:39:06.945Z,99.90
2018-08-08T20:41:34.666Z,99.90
2018-08-08T20:44:02.356Z,99.90
2018-08-08T20:46:30.019Z,99.90
2018-08-08T20:48:57.596Z,99.90
2018-08-08T20:51:25.190Z,99.90
2018-08-08T20:53:52.848Z,99.90
2018-08-08T20:56:20.895Z,99.90
2018-08-08T20:58:48.792Z,99.90
2018-08-08T21:01:16.514Z,99.90
2018-08-08T21:03:44.180Z,99.90
2018-08-08T21:06:11.763Z,99.90
2018-08-08T21:08:39.329Z,99.90
2018-08-08T21:11:07.078Z,99.90
2018-08-08T21:13:34.634Z,99.90
2018-08-08T21:16:02.260Z,99.90
2018-08-08T21:18:29.963Z,99.90
2018-08-08T21:20:58.135Z,99.90
2018-08-08T21:23:26.362Z,99.90
2018-08-08T21:25:54.515Z,99.90
2018-08-08T21:28:22.428Z,99.90
2018-08-08T21:30:49.892Z,99.90
2018-08-08T21:33:17.421Z,99.90
2018-08-08T21:35:45.109Z,99.90
2018-08-08T21:38:12.563Z,99.90
2018-08-08T21:40:40.204Z,99.90
2018-08-08T21:43:07.885Z,99.90
2018-08-08T21:45:35.529Z,99.90
2018-08-08T21:48:03.419Z,99.90
2018-08-08T21:50:30.967Z,99.90
2018-08-08T21:52:58.470Z,99.90
2018-08-08T21:55:37.288Z,99.90
2018-08-08T21:58:16.488Z,99.90
2018-08-08T22:00:55.344Z,99.90
2018-08-08T22:03:34.420Z,99.90
2018-08-08T22:06:13.410Z,99.90
2018-08-08T22:08:52.328Z,99.90
2018-08-08T22:11:31.320Z,99.90
2018-08-08T22:14:10.331Z,99.90
2018-08-08T22:16:49.292Z,99.90
2018-08-08T22:19:27.923Z,99.90
2018-08-08T22:21:55.960Z,99.90
2018-08-08T22:24:24.174Z,99.90
2018-08-08T22:26:51.748Z,99.90
2018-08-08T22:29:19.398Z,99.90
2018-08-08T22:31:47.602Z,99.90
2018-08-08T22:34:15.146Z,99.90
2018-08-08T22:36:42.678Z,99.90
2018-08-08T22:39:12.217Z,99.90
2018-08-08T22:41:39.755Z,99.90
2018-08-08T22:44:07.377Z,99.90
2018-08-08T22:46:34.911Z,99.90
2018-08-08T22:49:02.778Z,99.90
2018-08-08T22:51:30.399Z,99.90
2018-08-08T22:53:58.397Z,99.90
2018-08-08T22:56:26.461Z,99.90
2018-08-08T22:58:54.296Z,99.90
2018-08-08T23:01:21.756Z,99.90
2018-08-08T23:03:49.319Z,99.90
2018-08-08T23:06:16.928Z,99.90
2018-08-08T23:08:44.497Z,99.90
2018-08-08T23:11:13.570Z,99.90
2018-08-08T23:13:41.886Z,99.90
2018-08-08T23:16:09.410Z,99.90
2018-08-08T23:18:37.408Z,99.90
2018-08-08T23:21:05.024Z,99.90
2018-08-08T23:23:32.613Z,99.90
2018-08-08T23:26:00.211Z,99.90
2018-08-08T23:28:27.702Z,99.90
2018-08-08T23:30:55.506Z,99.90
2018-08-08T23:33:23.125Z,99.90
2018-08-08T23:35:50.648Z,99.90
2018-08-08T23:38:18.269Z,99.90
2018-08-08T23:40:45.808Z,99.90
2018-08-08T23:43:13.318Z,99.90
2018-08-08T23:45:40.973Z,99.90
2018-08-08T23:48:08.600Z,99.90
2018-08-08T23:50:36.746Z,99.90
2018-08-08T23:53:04.174Z,99.90
2018-08-08T23:55:31.862Z,99.90
2018-08-08T23:57:59.392Z,99.90
